Latest Weather Observations for Bradshaw

IDD60801

Issued at 4:35 pm CST Saturday 29 November 2014 (issued every 30 minutes, with the page automatically refreshed every 10 minutes)

About weather observations | Map of weather stations | Latest weather observations for NT | Other Formats
Station Details ID: 014954 Name: BRADSHAW Lat: -14.94 Lon: 130.81 Height: 75.0 m
Data from the previous 72 hours. | See also: Recent months at Bradshaw
Date/Time
CST
Temp
°C
App
Temp
°C
Dew
Point
Rel
Hum
%
Delta-T
°C
Wind Press
QNH
hPa
Press
MSL
hPa
Rain
since 9 am
mm
Dir
 
Spd
km/h
Gust
km/h
Spd
kts
Gust
kts
29/04:30pm 34.5 36.3 22.6 50 8.2 W 17 26 9 14 1004.3 - 0.0
29/04:00pm 37.5 38.4 21.6 39 10.9 WNW 19 30 10 16 1003.8 - 0.0
29/03:30pm 37.8 39.4 21.4 38 11.3 WNW 15 26 8 14 1004.5 - 0.0
29/03:00pm 37.8 38.9 22.3 41 10.8 NW 20 28 11 15 1004.3 1003.8 0.0
29/02:30pm 36.8 37.2 22.5 43 9.9 NW 24 32 13 17 1004.6 - 0.0
29/02:00pm 37.4 39.4 20.7 38 11.3 ENE 11 15 6 8 1005.5 - 0.0
29/01:30pm 36.8 39.3 21.0 40 10.7 NNE 9 20 5 11 1006.2 - 0.0
29/01:00pm 35.7 39.6 21.9 44 9.5 NW 4 9 2 5 1006.9 - 0.0
29/12:30pm 34.3 36.4 22.4 50 8.2 NW 15 28 8 15 1007.5 - 0.0
29/12:00pm 34.5 37.6 22.2 48 8.5 NE 9 15 5 8 1008.5 1007.9 0.0
29/11:30am 34.5 38.0 22.2 48 8.4 ENE 7 11 4 6 1009.0 - 0.0
29/11:00am 34.1 37.0 22.5 50 8.0 W 11 17 6 9 1009.0 - 0.0
29/10:30am 33.8 36.5 22.2 50 8.0 NW 11 17 6 9 1009.4 - 0.0
29/10:00am 34.3 36.7 23.0 51 7.8 NW 15 20 8 11 1009.8 - 0.0
29/09:30am 32.4 34.9 22.5 56 6.8 NNW 13 22 7 12 1010.2 - 0.0
29/09:00am 31.6 33.6 22.3 57 6.4 NNW 15 20 8 11 1010.2 1009.6 0.2
29/08:30am 30.9 33.6 22.8 62 5.6 NNW 13 20 7 11 1010.1 - 0.2
29/08:00am 30.2 33.7 23.6 67 4.6 NNW 11 15 6 8 1009.9 - 0.2
29/07:30am 28.5 32.4 23.6 75 3.4 NNW 9 15 5 8 1009.7 - 0.2
29/07:00am 27.7 31.7 23.7 79 2.8 N 9 13 5 7 1009.5 - 0.2
29/06:30am 27.5 30.9 23.3 78 2.9 NNW 11 15 6 8 1009.0 - 0.2
29/06:00am 27.3 31.0 23.3 79 2.7 N 9 11 5 6 1008.6 1008.0 0.2
29/05:30am 27.3 31.1 23.5 80 2.6 NNW 9 11 5 6 1007.9 - 0.2
29/05:00am 27.2 31.3 23.2 79 2.7 NNW 7 9 4 5 1007.9 - 0.2
29/04:30am 27.3 32.4 23.3 79 2.7 W 2 6 1 3 1007.7 - 0.2
29/04:00am 27.5 31.5 23.1 77 3.0 N 7 9 4 5 1007.6 - 0.2
29/03:30am 28.2 32.3 22.9 73 3.6 NW 6 7 3 4 1007.5 - 0.2
29/03:00am 28.3 32.3 22.8 72 3.8 NNW 6 9 3 5 1007.3 1006.7 0.2
29/02:30am 28.4 31.7 22.6 71 3.9 NNW 9 11 5 6 1007.3 - 0.2
29/02:00am 28.8 31.9 22.8 70 4.1 NNW 11 15 6 8 1007.6 - 0.2
29/01:30am 28.9 31.9 22.6 69 4.3 NNW 11 15 6 8 1007.9 - 0.2
29/01:00am 28.9 32.0 22.9 70 4.1 NNW 11 13 6 7 1008.2 - 0.2
29/12:30am 28.8 32.0 23.0 71 4.0 N 11 13 6 7 1008.4 - 0.2
29/12:00am 28.7 33.8 23.4 73 3.7 NNE 2 6 1 3 1008.9 1008.3 0.2
 
Date/Time
CST
Temp
°C
App
Temp
°C
Dew
Point
Rel
Hum
%
Delta-T
°C
Wind Press
QNH
hPa
Press
MSL
hPa
Rain
since 9 am
mm
Dir
 
Spd
km/h
Gust
km/h
Spd
kts
Gust
kts
28/11:30pm 28.6 34.3 23.7 75 3.4 CALM 0 0 0 0 1009.1 - 0.2
28/11:00pm 29.5 32.5 22.7 67 4.6 NNW 11 15 6 8 1009.4 - 0.2
28/10:30pm 29.0 34.3 25.0 79 2.8 W 6 11 3 6 1009.3 - 0.2
28/10:00pm 29.2 33.3 24.5 76 3.3 N 11 11 6 6 1008.9 - 0.2
28/09:30pm 28.7 34.3 25.7 84 2.1 N 7 9 4 5 1008.7 - 0.2
28/09:00pm 28.8 34.4 25.4 82 2.4 NE 6 11 3 6 1008.2 1007.6 0.2
28/08:30pm 29.0 34.2 24.8 78 2.9 ESE 6 7 3 4 1008.1 - 0.2
28/08:00pm 29.6 36.4 25.6 79 2.8 CALM 0 0 0 0 1007.8 - 0.2
28/07:30pm 29.5 34.0 24.6 75 3.4 N 9 11 5 6 1007.4 - 0.2
28/07:00pm 29.0 32.6 23.7 73 3.7 NE 11 13 6 7 1007.2 - 0.2
28/06:30pm 28.2 29.2 21.7 68 4.4 ESE 19 24 10 13 1007.2 - 0.2
28/06:19pm 27.7 26.5 22.2 72 3.7 ESE 32 43 17 23 1007.3 - 0.2
28/06:00pm 32.7 32.1 20.6 49 8.1 ESE 24 37 13 20 1006.7 1006.2 0.0
28/05:30pm 36.5 36.7 18.6 35 11.8 NE 15 20 8 11 1006.2 - 0.0
28/05:00pm 36.4 37.7 18.5 35 11.8 NNE 9 20 5 11 1006.0 - 0.0
28/04:30pm 36.9 38.6 18.4 33 12.2 NW 7 17 4 9 1006.0 - 0.0
28/04:00pm 37.2 38.0 18.2 32 12.5 ESE 11 17 6 9 1006.1 - 0.0
28/03:30pm 36.1 36.5 18.2 34 11.7 ESE 13 20 7 11 1006.5 - 0.0
28/03:00pm 35.6 36.4 19.1 38 10.9 N 13 19 7 10 1007.2 1006.6 0.0
28/02:30pm 35.7 38.7 21.2 43 9.9 W 7 13 4 7 1007.8 - 0.0
28/02:00pm 35.0 36.9 21.3 45 9.3 SW 13 19 7 10 1008.3 - 0.0
28/01:30pm 34.1 37.6 21.9 49 8.3 SE 6 15 3 8 1008.9 - 0.0
28/01:00pm 33.0 35.8 21.5 50 7.8 NNW 9 13 5 7 1009.5 - 0.0
28/12:30pm 32.5 34.8 22.0 54 7.2 WSW 13 20 7 11 1010.0 - 0.0
28/12:00pm 31.2 33.9 22.2 58 6.1 NNW 11 17 6 9 1010.7 1010.1 0.0
28/11:30am 30.4 33.2 22.3 62 5.5 NNW 11 17 6 9 1011.2 - 0.0
28/11:00am 29.5 33.7 23.4 69 4.2 W 7 11 4 6 1011.7 - 0.0
28/10:30am 27.3 31.2 22.5 75 3.3 NW 6 9 3 5 1012.1 - 0.0
28/10:00am 25.7 29.0 22.6 83 2.1 NW 9 13 5 7 1012.2 - 0.0
28/09:30am 24.7 27.7 22.6 88 1.4 N 11 17 6 9 1012.7 - 0.0
28/09:00am 23.9 25.6 22.3 91 1.1 N 17 22 9 12 1012.8 1012.2 8.4
28/08:30am 23.5 24.7 22.1 92 0.9 N 19 30 10 16 1013.1 - 8.4
28/08:00am 24.0 25.7 22.4 91 1.1 NNE 17 22 9 12 1013.3 - 7.6
28/07:30am 24.4 27.4 23.4 94 0.7 NNE 13 15 7 8 1012.7 - 6.4
28/07:00am 24.6 27.3 22.8 90 1.2 ENE 13 19 7 10 1012.2 - 2.8
28/06:30am 25.8 29.8 23.1 85 1.8 SE 7 9 4 5 1011.5 - 0.4
28/06:00am 25.9 29.5 23.0 84 2.0 E 9 13 5 7 1010.9 1010.3 0.4
28/05:30am 26.0 30.5 23.7 87 1.6 E 6 7 3 4 1010.5 - 0.4
28/05:00am 27.1 31.0 22.5 76 3.1 SW 6 9 3 5 1010.2 - 0.0
28/04:30am 27.3 30.7 22.0 73 3.6 SSW 7 13 4 7 1010.0 - 0.0
28/04:00am 27.3 30.2 22.5 75 3.3 SSW 11 15 6 8 1009.6 - 0.0
28/03:30am 27.5 30.2 22.2 73 3.6 SW 11 15 6 8 1009.3 - 0.0
28/03:00am 28.2 31.0 21.5 67 4.5 SW 9 11 5 6 1008.8 1008.2 0.0
28/02:30am 28.9 31.8 21.1 62 5.2 S 7 9 4 5 1008.7 - 0.0
28/02:00am 29.1 32.0 21.1 62 5.3 S 7 9 4 5 1008.5 - 0.0
28/01:30am 29.3 32.7 21.0 61 5.5 SW 4 7 2 4 1008.6 - 0.0
28/01:00am 29.3 31.6 20.7 59 5.7 SSW 9 11 5 6 1009.1 - 0.0
28/12:30am 29.4 31.8 20.8 60 5.7 SW 9 13 5 7 1009.3 - 0.0
28/12:00am 29.1 33.9 22.1 66 4.7 CALM 0 0 0 0 1009.5 1008.9 0.0
 
Date/Time
CST
Temp
°C
App
Temp
°C
Dew
Point
Rel
Hum
%
Delta-T
°C
Wind Press
QNH
hPa
Press
MSL
hPa
Rain
since 9 am
mm
Dir
 
Spd
km/h
Gust
km/h
Spd
kts
Gust
kts
27/11:30pm 29.1 33.7 21.8 64 4.9 CALM 0 0 0 0 1009.7 - 0.0
27/11:00pm 28.8 33.3 21.6 65 4.8 CALM 0 0 0 0 1009.6 - 0.0
27/10:30pm 29.3 33.7 21.3 62 5.4 CALM 0 0 0 0 1009.5 - 0.0
27/10:00pm 29.6 33.8 21.0 60 5.7 CALM 0 0 0 0 1009.2 - 0.0
27/09:30pm 30.0 34.1 20.8 57 6.1 CALM 0 0 0 0 1009.2 - 0.0
27/09:00pm 30.5 33.4 21.0 57 6.4 W 7 9 4 5 1009.0 1008.4 0.0
27/08:30pm 31.1 33.7 20.4 53 7.1 WSW 7 13 4 7 1008.7 - 0.0
27/08:00pm 31.7 34.1 20.0 50 7.8 NW 7 11 4 6 1008.1 - 0.0
27/07:30pm 32.4 34.4 20.0 48 8.2 NNW 9 13 5 7 1007.9 - 0.0
27/07:00pm 33.2 34.9 19.3 44 9.2 NNW 9 11 5 6 1007.6 - 0.0
27/06:30pm 33.8 33.9 19.1 42 9.7 N 17 22 9 12 1007.4 - 0.0
27/06:00pm 34.2 34.8 19.4 41 9.8 NNW 15 22 8 12 1007.4 1006.8 0.0
27/05:30pm 34.6 35.0 18.2 37 10.7 N 13 19 7 10 1007.0 - 0.0
27/05:00pm 34.8 36.1 18.4 38 10.7 N 9 11 5 6 1007.0 - 0.0
27/04:30pm 34.8 34.9 18.4 38 10.7 N 15 20 8 11 1007.2 - 0.0
27/04:00pm 35.1 36.5 18.6 37 10.8 N 9 15 5 8 1007.3 - 0.0
27/03:30pm 35.2 36.6 18.7 37 10.8 N 9 20 5 11 1007.5 - 0.0
27/03:00pm 35.2 36.4 19.1 38 10.7 N 11 20 6 11 1007.7 1007.1 0.0
27/02:30pm 34.6 36.1 19.8 41 9.9 N 11 20 6 11 1008.2 - 0.0
27/02:00pm 34.1 35.4 19.4 42 9.7 N 11 19 6 10 1008.8 - 0.0
27/01:30pm 34.1 35.4 20.1 43 9.3 NNE 13 24 7 13 1009.3 - 0.0
27/01:00pm 33.3 35.1 20.4 46 8.6 N 11 20 6 11 1009.9 - 0.0
27/12:30pm 32.7 35.3 21.2 50 7.8 N 9 17 5 9 1010.5 - 0.0
27/12:00pm 30.8 32.5 20.1 53 7.1 NNE 11 17 6 9 1011.0 1010.4 0.0
27/11:30am 30.0 31.4 20.3 56 6.4 N 13 17 7 9 1011.2 - 0.0
27/11:00am 29.2 30.6 19.5 56 6.3 NNE 11 17 6 9 1011.5 - 0.0
27/10:30am 28.3 29.3 19.5 59 5.7 NNE 13 17 7 9 1011.5 - 0.0
27/10:00am 28.1 29.4 19.3 58 5.7 NNE 11 17 6 9 1011.7 - 0.0
27/09:30am 27.6 29.7 19.4 61 5.3 N 7 11 4 6 1011.8 - 0.0
27/09:00am 27.4 29.9 20.2 65 4.7 NNW 7 11 4 6 1011.5 1010.9 0.0
27/08:30am 26.5 29.2 20.6 70 3.9 NW 7 9 4 5 1011.3 - 0.0
27/08:00am 26.3 29.0 20.6 71 3.8 NNW 7 9 4 5 1011.2 - 0.0
27/07:30am 26.0 28.6 21.2 75 3.2 NNW 9 11 5 6 1011.2 - 0.0
27/07:00am 26.0 29.7 21.4 76 3.1 N 4 7 2 4 1010.8 - 0.0
27/06:30am 25.8 29.6 21.7 78 2.7 N 4 9 2 5 1010.7 - 0.0
27/06:00am 25.5 28.4 21.8 80 2.5 N 9 15 5 8 1010.6 1010.0 0.0
27/05:30am 26.2 27.1 21.6 76 3.1 N 19 28 10 15 1009.9 - 0.0
27/05:00am 26.3 27.1 21.7 76 3.1 NNE 20 28 11 15 1009.7 - 0.0
27/04:30am 26.3 27.3 21.7 76 3.1 NNE 19 28 10 15 1009.3 - 0.0
27/04:00am 27.1 27.9 21.8 73 3.6 NNE 20 32 11 17 1008.9 - 0.0
27/03:30am 28.1 31.7 22.1 70 4.1 NNW 6 19 3 10 1008.5 - 0.0
27/03:00am 28.0 32.7 22.0 70 4.1 CALM 0 0 0 0 1008.3 1007.7 0.0
27/02:30am 28.3 33.2 22.3 70 4.1 CALM 0 0 0 0 1008.3 - 0.0
27/02:00am 28.4 33.2 22.2 69 4.2 CALM 0 0 0 0 1008.3 - 0.0
27/01:30am 28.3 31.6 21.8 68 4.4 NNW 7 11 4 6 1008.3 - 0.0
27/01:00am 28.1 31.4 22.6 72 3.7 N 9 13 5 7 1008.5 - 0.0
27/12:30am 27.8 32.7 22.3 72 3.7 CALM 0 0 0 0 1008.6 - 0.0
27/12:00am 28.2 31.4 21.7 68 4.4 NNW 7 9 4 5 1008.9 1008.3 0.0
 
Date/Time
CST
Temp
°C
App
Temp
°C
Dew
Point
Rel
Hum
%
Delta-T
°C
Wind Press
QNH
hPa
Press
MSL
hPa
Rain
since 9 am
mm
Dir
 
Spd
km/h
Gust
km/h
Spd
kts
Gust
kts
26/11:30pm 28.3 33.1 22.1 69 4.2 CALM 0 0 0 0 1009.0 - 0.0
26/11:00pm 29.0 33.5 21.5 64 5.0 CALM 0 6 0 3 1009.1 - 0.0
26/10:30pm 29.1 32.9 21.6 64 5.0 SSE 4 7 2 4 1008.9 - 0.0
26/10:00pm 29.2 32.4 21.7 64 5.1 S 7 9 4 5 1008.5 - 0.0
26/09:30pm 29.9 33.4 21.8 62 5.5 S 6 7 3 4 1008.1 - 0.0
26/09:00pm 30.4 33.0 21.2 58 6.2 SW 9 13 5 7 1007.8 1007.2 0.0
26/08:30pm 31.1 33.5 21.6 57 6.4 SW 11 19 6 10 1008.1 - 0.0
26/08:00pm 31.2 34.9 21.4 56 6.6 SSW 4 9 2 5 1007.8 - 0.0
26/07:30pm 32.0 36.3 21.2 52 7.3 CALM 0 0 0 0 1007.3 - 0.0
26/07:00pm 32.4 35.3 21.0 51 7.7 SSW 7 11 4 6 1006.7 - 0.0
26/06:30pm 32.6 35.6 20.8 49 7.9 WSW 6 9 3 5 1005.6 - 0.0
26/06:00pm 32.5 34.1 20.7 49 7.9 WSW 13 17 7 9 1005.5 1005.0 0.0
26/05:30pm 35.4 36.1 17.1 33 11.8 NNE 9 13 5 7 1005.3 - 0.0
26/05:00pm 35.7 36.2 17.4 33 11.8 N 11 15 6 8 1004.9 - 0.0

Other Formats:

Comma delimited format used in spreadsheet applications
http://www.bom.gov.au/fwo/IDD60801/IDD60801.94130.axf

JavaScript Object Notation format (JSON) in row-major order
http://www.bom.gov.au/fwo/IDD60801/IDD60801.94130.json